createdAt,value
2018-03-18T00:00:31.831Z,36.21
2018-03-18T00:01:31.820Z,36.09
2018-03-18T00:02:31.786Z,36.14
2018-03-18T00:03:31.851Z,36.25
2018-03-18T00:04:31.832Z,36.29
2018-03-18T00:05:31.802Z,35.96
2018-03-18T00:06:31.816Z,36.34
2018-03-18T00:07:31.782Z,36.14
2018-03-18T00:08:31.929Z,36.07
2018-03-18T00:09:31.831Z,36.13
2018-03-18T00:10:31.805Z,36.15
2018-03-18T00:11:31.824Z,36.19
2018-03-18T00:12:31.817Z,36.17
2018-03-18T00:13:31.794Z,36.08
2018-03-18T00:14:31.796Z,36.12
2018-03-18T00:15:31.826Z,36.23
2018-03-18T00:16:31.781Z,36.3
2018-03-18T00:17:31.775Z,36.1
2018-03-18T00:18:31.809Z,36.14
2018-03-18T00:19:31.865Z,36.15
2018-03-18T00:20:31.783Z,36.04
2018-03-18T00:21:31.817Z,36.08
2018-03-18T00:22:31.793Z,36.12
2018-03-18T00:23:31.803Z,36.12
2018-03-18T00:24:31.810Z,36.03
2018-03-18T00:25:31.773Z,36.1
2018-03-18T00:26:31.773Z,36.1
2018-03-18T00:27:31.809Z,36.18
2018-03-18T00:28:31.796Z,36.11
2018-03-18T00:29:31.782Z,36.09
2018-03-18T00:30:31.816Z,36.11
2018-03-18T00:31:31.781Z,36.1
2018-03-18T00:32:31.774Z,36.08
2018-03-18T00:33:31.811Z,36.12
2018-03-18T00:34:31.819Z,36.17
2018-03-18T00:35:31.830Z,36.01
2018-03-18T00:36:31.812Z,36.07
2018-03-18T00:37:31.764Z,36.1
2018-03-18T00:38:31.771Z,36.1
2018-03-18T00:39:31.808Z,36.09
2018-03-18T00:40:31.778Z,36.16
2018-03-18T00:41:31.775Z,36.19
2018-03-18T00:42:31.798Z,36.11
2018-03-18T00:43:31.803Z,36.09
2018-03-18T00:44:31.796Z,35.94
2018-03-18T00:45:31.871Z,36.17
2018-03-18T00:46:31.763Z,36.25
2018-03-18T00:47:31.909Z,36.01
2018-03-18T00:48:31.893Z,36.28
2018-03-18T00:49:31.767Z,36.12
2018-03-18T00:50:31.819Z,36.07
2018-03-18T00:51:31.802Z,35.91
2018-03-18T00:52:31.791Z,35.99
2018-03-18T00:53:31.776Z,36.03
2018-03-18T00:54:31.806Z,36.19
2018-03-18T00:55:31.801Z,36.09
2018-03-18T00:56:31.776Z,36.09
2018-03-18T00:57:31.815Z,36.03
2018-03-18T00:58:31.805Z,36.01
2018-03-18T00:59:31.790Z,36.17
2018-03-18T01:00:31.795Z,36.03
2018-03-18T01:01:31.807Z,36.03
2018-03-18T01:02:31.772Z,36.01
2018-03-18T01:03:32.062Z,36.13
2018-03-18T01:04:31.789Z,36.12
2018-03-18T01:05:31.764Z,36.07
2018-03-18T01:06:31.799Z,36.09
2018-03-18T01:07:31.783Z,36.11
2018-03-18T01:08:31.813Z,36.08
2018-03-18T01:09:31.795Z,36.11
2018-03-18T01:10:31.786Z,36.06
2018-03-18T01:11:31.760Z,36.1
2018-03-18T01:12:31.791Z,36.02
2018-03-18T01:13:31.803Z,36.04
2018-03-18T01:14:31.788Z,36.1
2018-03-18T01:15:31.760Z,36.08
2018-03-18T01:16:31.797Z,36.12
2018-03-18T01:17:31.799Z,36.12
2018-03-18T01:18:31.818Z,36.08
2018-03-18T01:19:31.784Z,36.08
2018-03-18T01:20:31.784Z,36.04
2018-03-18T01:21:31.800Z,36.09
2018-03-18T01:22:31.819Z,36.05
2018-03-18T01:23:31.772Z,35.99
2018-03-18T01:24:31.812Z,36.02
2018-03-18T01:25:31.762Z,36.06
2018-03-18T01:26:31.784Z,36.06
2018-03-18T01:27:31.791Z,36.13
2018-03-18T01:28:31.779Z,36.17
2018-03-18T01:29:31.766Z,36.1
2018-03-18T01:30:31.808Z,36.05
2018-03-18T01:31:31.744Z,36.05
2018-03-18T01:32:31.799Z,36.11
2018-03-18T01:33:31.791Z,36.04
2018-03-18T01:34:31.921Z,36.02
2018-03-18T01:35:31.746Z,36
2018-03-18T01:36:31.789Z,36.05
2018-03-18T01:37:31.789Z,35.98
2018-03-18T01:38:31.755Z,36.03
2018-03-18T01:39:31.814Z,36.07
2018-03-18T01:40:31.755Z,36.04
2018-03-18T01:41:31.748Z,36.02
2018-03-18T01:42:31.786Z,36.04
2018-03-18T01:43:31.783Z,36.17
2018-03-18T01:44:31.772Z,35.9
2018-03-18T01:45:31.786Z,36.11
2018-03-18T01:46:31.752Z,36.06
2018-03-18T01:47:31.748Z,36.11
2018-03-18T01:48:31.804Z,35.97
2018-03-18T01:49:31.802Z,36.01
2018-03-18T01:50:31.758Z,36.04
2018-03-18T01:51:31.774Z,35.96
2018-03-18T01:52:31.748Z,36.03
2018-03-18T01:53:31.785Z,35.96
2018-03-18T01:54:31.797Z,36.09
2018-03-18T01:55:31.764Z,36.11
2018-03-18T01:56:31.772Z,35.99
2018-03-18T01:57:31.794Z,36.07
2018-03-18T01:58:31.805Z,36.11
2018-03-18T01:59:31.765Z,36.06
2018-03-18T02:00:31.773Z,36.08
2018-03-18T02:01:31.737Z,35.99
2018-03-18T02:02:31.749Z,35.98
2018-03-18T02:03:31.801Z,36.05
2018-03-18T02:04:31.752Z,36.04
2018-03-18T02:05:31.783Z,35.92
2018-03-18T02:06:31.794Z,36.06
2018-03-18T02:07:31.739Z,36.01
2018-03-18T02:08:31.742Z,36.05
2018-03-18T02:09:31.783Z,36.06
2018-03-18T02:10:31.770Z,36.05
2018-03-18T02:11:31.765Z,36.07
2018-03-18T02:12:31.781Z,36.03
2018-03-18T02:13:31.774Z,36.03
2018-03-18T02:14:31.733Z,35.97
2018-03-18T02:15:31.770Z,36
2018-03-18T02:16:31.763Z,36.09
2018-03-18T02:17:31.754Z,35.99
2018-03-18T02:18:31.773Z,36.04
2018-03-18T02:19:31.745Z,35.95
2018-03-18T02:20:31.772Z,36.03
2018-03-18T02:21:31.804Z,36.03
2018-03-18T02:22:31.742Z,36
2018-03-18T02:23:31.742Z,36
2018-03-18T02:24:31.760Z,36.04
2018-03-18T02:25:31.763Z,36.1
2018-03-18T02:26:31.768Z,36.02
2018-03-18T02:27:31.778Z,35.98
2018-03-18T02:28:31.745Z,35.96
2018-03-18T02:29:31.761Z,35.96
2018-03-18T02:30:31.764Z,36.01
2018-03-18T02:31:31.780Z,35.95
2018-03-18T02:32:31.758Z,36.02
2018-03-18T02:33:31.768Z,36.01
2018-03-18T02:34:31.763Z,36.06
2018-03-18T02:35:31.783Z,36.02
2018-03-18T02:36:31.784Z,35.95
2018-03-18T02:37:31.775Z,36.02
2018-03-18T02:38:31.771Z,36.04
2018-03-18T02:39:31.788Z,36.01
2018-03-18T02:40:31.749Z,36.08
2018-03-18T02:41:31.748Z,36.03
2018-03-18T02:42:31.804Z,36.02
2018-03-18T02:43:31.729Z,36.06
2018-03-18T02:44:31.745Z,36.04
2018-03-18T02:45:31.757Z,36.02
2018-03-18T02:46:31.742Z,35.98
2018-03-18T02:47:31.754Z,36.06
2018-03-18T02:48:31.881Z,35.98
2018-03-18T02:49:31.838Z,35.98
2018-03-18T02:50:31.780Z,36.01
2018-03-18T02:51:31.821Z,35.9
2018-03-18T02:52:31.743Z,35.98
2018-03-18T02:53:31.761Z,35.9
2018-03-18T02:54:31.798Z,36
2018-03-18T02:55:31.756Z,35.9
2018-03-18T02:56:31.759Z,36.15
2018-03-18T02:57:31.769Z,35.97
2018-03-18T02:58:31.769Z,36
2018-03-18T02:59:31.758Z,35.9
2018-03-18T03:00:31.759Z,36.05
2018-03-18T03:01:31.750Z,35.99
2018-03-18T03:02:31.765Z,36.07
2018-03-18T03:03:31.773Z,35.98
2018-03-18T03:04:31.780Z,35.87
2018-03-18T03:05:31.856Z,35.95
2018-03-18T03:06:31.750Z,35.93
2018-03-18T03:07:31.742Z,36
2018-03-18T03:08:31.719Z,35.9
2018-03-18T03:09:31.756Z,36.03
2018-03-18T03:10:31.766Z,36.04
2018-03-18T03:11:31.739Z,35.96
2018-03-18T03:12:31.763Z,36.01
2018-03-18T03:13:31.716Z,35.97
2018-03-18T03:14:31.722Z,35.96
2018-03-18T03:15:31.772Z,35.98
2018-03-18T03:16:31.806Z,35.95
2018-03-18T03:17:31.743Z,36.06
2018-03-18T03:18:31.785Z,36.06
2018-03-18T03:19:31.744Z,36.05
2018-03-18T03:20:31.721Z,36.08
2018-03-18T03:21:31.764Z,36
2018-03-18T03:22:31.745Z,36.02
2018-03-18T03:23:31.720Z,36.07
2018-03-18T03:24:31.749Z,35.92
2018-03-18T03:25:31.739Z,35.94
2018-03-18T03:26:31.741Z,35.88
2018-03-18T03:27:31.782Z,36.09
2018-03-18T03:28:31.752Z,35.98
2018-03-18T03:29:31.714Z,36.02
2018-03-18T03:30:31.755Z,36.04
2018-03-18T03:31:31.743Z,36.01
2018-03-18T03:32:31.745Z,35.95
2018-03-18T03:33:31.754Z,36.02
2018-03-18T03:34:31.713Z,35.99
2018-03-18T03:35:31.743Z,36.06
2018-03-18T03:36:31.748Z,35.98
2018-03-18T03:37:31.726Z,36.03
2018-03-18T03:38:31.739Z,35.92
2018-03-18T03:39:31.757Z,36.01
2018-03-18T03:40:31.744Z,35.85
2018-03-18T03:41:31.771Z,35.99
2018-03-18T03:42:31.742Z,36
2018-03-18T03:43:31.708Z,35.97
2018-03-18T03:44:31.737Z,35.99
2018-03-18T03:45:31.754Z,35.93
2018-03-18T03:46:31.729Z,35.93
2018-03-18T03:47:31.775Z,35.94
2018-03-18T03:48:31.749Z,35.98
2018-03-18T03:49:31.735Z,35.96
2018-03-18T03:50:31.731Z,35.97
2018-03-18T03:51:31.738Z,36.03
2018-03-18T03:52:31.756Z,36.08
2018-03-18T03:53:31.730Z,35.92
2018-03-18T03:54:31.744Z,36.04
2018-03-18T03:55:31.732Z,35.99
2018-03-18T03:56:31.715Z,35.99
2018-03-18T03:57:31.763Z,36.05
2018-03-18T03:58:31.705Z,35.94
2018-03-18T03:59:31.738Z,36.05
2018-03-18T04:00:31.739Z,36.05
2018-03-18T04:01:31.708Z,35.95
2018-03-18T04:02:31.727Z,35.95
2018-03-18T04:03:31.740Z,35.98
2018-03-18T04:04:31.709Z,35.99
2018-03-18T04:05:31.706Z,36.03
2018-03-18T04:06:31.735Z,35.92
2018-03-18T04:07:31.733Z,35.87
2018-03-18T04:08:31.724Z,35.96
2018-03-18T04:09:31.741Z,36.03
2018-03-18T04:10:31.700Z,35.98
2018-03-18T04:11:31.701Z,35.92
2018-03-18T04:12:31.733Z,35.94
2018-03-18T04:13:31.714Z,36.08
2018-03-18T04:14:31.701Z,35.93
2018-03-18T04:15:31.740Z,36.09
2018-03-18T04:16:31.910Z,35.78
2018-03-18T04:17:31.721Z,35.83
2018-03-18T04:18:31.731Z,36
2018-03-18T04:19:31.729Z,36.01
2018-03-18T04:20:31.727Z,35.97
2018-03-18T04:21:31.761Z,35.93
2018-03-18T04:22:31.746Z,35.96
2018-03-18T04:23:31.733Z,36.03
2018-03-18T04:24:31.721Z,35.96
2018-03-18T04:25:31.708Z,35.93
2018-03-18T04:26:31.709Z,36
2018-03-18T04:27:31.741Z,35.89
2018-03-18T04:28:31.702Z,35.96
2018-03-18T04:29:31.697Z,35.81
2018-03-18T04:30:31.727Z,35.97
2018-03-18T04:31:31.745Z,36
2018-03-18T04:32:31.750Z,35.92
2018-03-18T04:33:31.728Z,35.96
2018-03-18T04:34:31.727Z,35.82
2018-03-18T04:35:31.716Z,35.98
2018-03-18T04:36:31.730Z,35.88
2018-03-18T04:37:31.752Z,35.99
2018-03-18T04:38:31.700Z,35.95
2018-03-18T04:39:31.728Z,35.89
2018-03-18T04:40:31.685Z,35.94
2018-03-18T04:41:31.692Z,35.92
2018-03-18T04:42:31.761Z,35.92
2018-03-18T04:43:31.728Z,36.01
2018-03-18T04:44:31.722Z,35.95
2018-03-18T04:45:31.735Z,35.92
2018-03-18T04:46:31.694Z,35.74
2018-03-18T04:47:31.695Z,36.06
2018-03-18T04:48:31.742Z,35.92
2018-03-18T04:49:31.789Z,35.88
2018-03-18T04:50:31.794Z,35.77
2018-03-18T04:51:31.727Z,36
2018-03-18T04:52:31.696Z,35.83
2018-03-18T04:53:31.720Z,35.81
2018-03-18T04:54:31.716Z,35.94
2018-03-18T04:55:31.692Z,36.04
2018-03-18T04:56:31.710Z,35.96
2018-03-18T04:57:31.726Z,35.97
2018-03-18T04:58:31.687Z,35.95
2018-03-18T04:59:31.682Z,36.03
2018-03-18T05:00:31.736Z,35.92
2018-03-18T05:01:31.734Z,35.87
2018-03-18T05:02:31.698Z,36.08
2018-03-18T05:03:31.721Z,35.98
2018-03-18T05:04:31.722Z,35.84
2018-03-18T05:05:31.702Z,35.96
2018-03-18T05:06:31.737Z,36.04
2018-03-18T05:07:31.683Z,36.13
2018-03-18T05:08:31.682Z,35.78
2018-03-18T05:09:31.723Z,35.84
2018-03-18T05:10:31.686Z,36.02
2018-03-18T05:11:31.687Z,35.92
2018-03-18T05:12:31.753Z,35.84
2018-03-18T05:13:31.709Z,36.05
2018-03-18T05:14:31.705Z,35.88
2018-03-18T05:15:31.724Z,35.96
2018-03-18T05:16:31.716Z,36.02
2018-03-18T05:17:31.708Z,35.93
2018-03-18T05:18:31.719Z,36
2018-03-18T05:19:31.709Z,36.03
2018-03-18T05:20:31.718Z,35.96
2018-03-18T05:21:31.724Z,35.96
2018-03-18T05:22:31.694Z,35.93
2018-03-18T05:23:31.708Z,35.91
2018-03-18T05:24:31.728Z,35.86
2018-03-18T05:25:31.714Z,35.81
2018-03-18T05:26:31.710Z,35.82
2018-03-18T05:27:31.717Z,35.8
2018-03-18T05:28:31.693Z,35.85
2018-03-18T05:29:31.716Z,35.74
2018-03-18T05:30:31.720Z,35.68
2018-03-18T05:31:31.695Z,35.72
2018-03-18T05:32:31.671Z,35.7
2018-03-18T05:33:31.708Z,35.73
2018-03-18T05:34:31.676Z,35.71
2018-03-18T05:35:31.881Z,35.67
2018-03-18T05:36:31.709Z,35.64
2018-03-18T05:37:31.671Z,35.7
2018-03-18T05:38:31.674Z,35.63
2018-03-18T05:39:31.712Z,35.62
2018-03-18T05:40:31.704Z,35.73
2018-03-18T05:41:31.708Z,35.7
2018-03-18T05:42:31.704Z,35.57
2018-03-18T05:43:31.733Z,35.67
2018-03-18T05:44:31.692Z,35.71
2018-03-18T05:45:31.885Z,35.63
2018-03-18T05:46:31.665Z,35.63
2018-03-18T05:47:31.709Z,35.62
2018-03-18T05:48:31.712Z,35.59
2018-03-18T05:49:31.665Z,35.59
2018-03-18T05:50:31.716Z,35.59
2018-03-18T05:51:31.716Z,35.61
2018-03-18T05:52:31.681Z,35.64
2018-03-18T05:53:31.691Z,35.65
2018-03-18T05:54:31.708Z,35.67
2018-03-18T05:55:31.712Z,35.65
2018-03-18T05:56:31.669Z,35.56
2018-03-18T05:57:31.699Z,35.63
2018-03-18T05:58:31.694Z,35.6
2018-03-18T05:59:31.695Z,35.59
2018-03-18T06:00:31.725Z,35.63
2018-03-18T06:01:31.673Z,35.6
2018-03-18T06:02:31.667Z,35.58
2018-03-18T06:03:31.709Z,35.6
2018-03-18T06:04:31.666Z,35.56
2018-03-18T06:05:31.717Z,35.58
2018-03-18T06:06:31.711Z,35.63
2018-03-18T06:07:31.659Z,35.6
2018-03-18T06:08:31.663Z,35.61
2018-03-18T06:09:31.709Z,35.6
2018-03-18T06:10:31.707Z,35.51
2018-03-18T06:11:31.668Z,35.54
2018-03-18T06:12:31.839Z,35.61
2018-03-18T06:13:31.681Z,35.46
2018-03-18T06:14:31.663Z,35.56
2018-03-18T06:15:31.709Z,35.49
2018-03-18T06:16:31.662Z,35.52
2018-03-18T06:17:31.658Z,35.54
2018-03-18T06:18:31.694Z,35.53
2018-03-18T06:19:31.706Z,35.61
2018-03-18T06:20:31.709Z,35.49
2018-03-18T06:21:31.687Z,35.51
2018-03-18T06:22:31.658Z,35.51
2018-03-18T06:23:31.662Z,35.51
2018-03-18T06:24:31.736Z,35.49
2018-03-18T06:25:31.695Z,35.49
2018-03-18T06:26:31.675Z,35.46
2018-03-18T06:27:31.688Z,35.44
2018-03-18T06:28:31.685Z,35.44
2018-03-18T06:29:31.681Z,35.54
2018-03-18T06:30:31.685Z,35.43
2018-03-18T06:31:31.774Z,35.44
2018-03-18T06:32:31.685Z,35.49
2018-03-18T06:33:31.714Z,35.46
2018-03-18T06:34:31.652Z,35.45
2018-03-18T06:35:31.698Z,35.43
2018-03-18T06:36:31.695Z,35.49
2018-03-18T06:37:31.749Z,35.43
2018-03-18T06:38:31.674Z,35.39
2018-03-18T06:39:31.688Z,35.4
2018-03-18T06:40:31.689Z,35.4
2018-03-18T06:41:31.681Z,35.34
2018-03-18T06:42:31.702Z,35.45
2018-03-18T06:43:31.652Z,35.43
2018-03-18T06:44:31.665Z,35.4
2018-03-18T06:45:31.684Z,35.38
2018-03-18T06:46:31.656Z,35.43
2018-03-18T06:47:31.651Z,35.34
2018-03-18T06:48:31.689Z,35.38
2018-03-18T06:49:31.653Z,35.38
2018-03-18T06:50:31.773Z,35.24
2018-03-18T06:51:31.824Z,35.33
2018-03-18T06:52:31.652Z,35.3
2018-03-18T06:53:31.732Z,35.3
2018-03-18T06:54:31.692Z,35.31
2018-03-18T06:55:31.651Z,35.38
2018-03-18T06:56:31.811Z,35.31
2018-03-18T06:57:31.682Z,35.33
2018-03-18T06:58:31.674Z,35.34
2018-03-18T06:59:31.651Z,35.29
2018-03-18T07:00:31.682Z,35.22
2018-03-18T07:01:31.723Z,35.29
2018-03-18T07:02:31.704Z,35.21
2018-03-18T07:03:31.680Z,35.29
2018-03-18T07:04:31.684Z,35.31
2018-03-18T07:05:31.652Z,35.28
2018-03-18T07:06:31.680Z,35.23
2018-03-18T07:07:31.673Z,35.22
2018-03-18T07:08:31.683Z,35.29
2018-03-18T07:09:31.702Z,35.17
2018-03-18T07:10:31.641Z,35.28
2018-03-18T07:11:31.643Z,35.16
2018-03-18T07:12:31.679Z,35.25
2018-03-18T07:13:31.687Z,35.21
2018-03-18T07:14:31.650Z,35.19
2018-03-18T07:15:31.676Z,35.23
2018-03-18T07:16:31.672Z,35.18
2018-03-18T07:17:31.642Z,35.21
2018-03-18T07:18:31.670Z,35.26
2018-03-18T07:19:31.644Z,35.23
2018-03-18T07:20:31.678Z,35.2
2018-03-18T07:21:31.719Z,35.16
2018-03-18T07:22:31.664Z,35.21
2018-03-18T07:23:31.708Z,35.1
2018-03-18T07:24:31.684Z,35.11
2018-03-18T07:25:31.709Z,35.18
2018-03-18T07:26:31.696Z,35.08
2018-03-18T07:27:31.683Z,35.15
2018-03-18T07:28:31.662Z,35.08
2018-03-18T07:29:31.657Z,35.08
2018-03-18T07:30:31.693Z,35.08
2018-03-18T07:31:31.670Z,35.1
2018-03-18T07:32:31.650Z,35.05
2018-03-18T07:33:31.667Z,35.1
2018-03-18T07:34:31.672Z,35.16
2018-03-18T07:35:31.641Z,35.12
2018-03-18T07:36:31.919Z,35.08
2018-03-18T07:37:31.632Z,35.06
2018-03-18T07:38:31.750Z,34.99
2018-03-18T07:39:31.668Z,35.05
2018-03-18T07:40:31.641Z,35.09
2018-03-18T07:41:31.654Z,35.07
2018-03-18T07:42:31.665Z,35
2018-03-18T07:43:31.675Z,35.07
2018-03-18T07:44:31.629Z,34.97
2018-03-18T07:45:31.666Z,35.03
2018-03-18T07:46:31.636Z,35.06
2018-03-18T07:47:31.638Z,34.95
2018-03-18T07:48:31.703Z,34.97
2018-03-18T07:49:31.631Z,35.02
2018-03-18T07:50:31.645Z,35.02
2018-03-18T07:51:31.695Z,34.92
2018-03-18T07:52:31.677Z,35.04
2018-03-18T07:53:31.643Z,34.99
2018-03-18T07:54:31.678Z,35.02
2018-03-18T07:55:31.627Z,35.11
2018-03-18T07:56:31.653Z,34.97
2018-03-18T07:57:31.682Z,34.87
2018-03-18T07:58:31.623Z,35
2018-03-18T07:59:31.623Z,34.89
2018-03-18T08:00:31.677Z,34.88
2018-03-18T08:01:31.629Z,35.02
2018-03-18T08:02:31.661Z,34.88
2018-03-18T08:03:31.663Z,34.92
2018-03-18T08:04:31.660Z,34.94
2018-03-18T08:05:31.634Z,34.88
2018-03-18T08:06:31.685Z,34.77
2018-03-18T08:07:31.713Z,34.9
2018-03-18T08:08:31.624Z,34.86
2018-03-18T08:09:31.660Z,34.87
2018-03-18T08:10:31.653Z,34.88
2018-03-18T08:11:31.624Z,34.89
2018-03-18T08:12:31.678Z,34.71
2018-03-18T08:13:31.623Z,34.85
2018-03-18T08:14:31.647Z,34.81
2018-03-18T08:15:31.662Z,34.81
2018-03-18T08:16:31.649Z,34.9
2018-03-18T08:17:31.657Z,34.86
2018-03-18T08:18:31.644Z,34.86
2018-03-18T08:19:31.647Z,34.9
2018-03-18T08:20:31.638Z,34.76
2018-03-18T08:21:31.664Z,34.87
2018-03-18T08:22:31.656Z,34.84
2018-03-18T08:23:31.638Z,34.79
2018-03-18T08:24:31.663Z,34.75
2018-03-18T08:25:31.615Z,34.83
2018-03-18T08:26:31.622Z,34.77
2018-03-18T08:27:31.654Z,34.75
2018-03-18T08:28:31.637Z,34.87
2018-03-18T08:29:31.630Z,34.74
2018-03-18T08:30:31.653Z,34.75
2018-03-18T08:31:31.640Z,34.73
2018-03-18T08:32:31.641Z,34.67
2018-03-18T08:33:31.678Z,34.75
2018-03-18T08:34:31.632Z,34.78
2018-03-18T08:35:31.621Z,34.74
2018-03-18T08:36:31.677Z,34.63
2018-03-18T08:37:31.641Z,34.78
2018-03-18T08:38:31.650Z,34.69
2018-03-18T08:39:31.676Z,34.67
2018-03-18T08:40:31.619Z,34.77
2018-03-18T08:41:31.649Z,34.77
2018-03-18T08:42:31.648Z,34.66
2018-03-18T08:43:31.607Z,34.84
2018-03-18T08:44:31.674Z,34.71
2018-03-18T08:45:31.639Z,34.68
2018-03-18T08:46:31.615Z,34.77
2018-03-18T08:47:31.613Z,34.69
2018-03-18T08:48:31.651Z,34.72
2018-03-18T08:49:31.656Z,34.74
2018-03-18T08:50:31.650Z,34.68
2018-03-18T08:51:31.766Z,34.65
2018-03-18T08:52:31.729Z,34.74
2018-03-18T08:53:31.604Z,34.71
2018-03-18T08:54:31.651Z,34.59
2018-03-18T08:55:31.659Z,34.76
2018-03-18T08:56:31.604Z,34.5
2018-03-18T08:57:31.674Z,34.6
2018-03-18T08:58:31.624Z,34.69
2018-03-18T08:59:31.632Z,34.69
2018-03-18T09:00:31.663Z,34.75
2018-03-18T09:01:31.643Z,34.89
2018-03-18T09:02:31.612Z,34.83
2018-03-18T09:03:31.640Z,35.06
2018-03-18T09:04:31.605Z,35.09
2018-03-18T09:05:31.642Z,35.22
2018-03-18T09:05:48.016Z,41.31
2018-03-18T09:06:47.988Z,35.57
2018-03-18T09:07:47.981Z,35.47
2018-03-18T09:08:47.993Z,35.54
2018-03-18T09:09:47.996Z,35.46
2018-03-18T09:10:47.973Z,35.43
2018-03-18T09:11:47.986Z,35.33
2018-03-18T09:12:47.966Z,35.3
2018-03-18T09:13:47.988Z,35.41
2018-03-18T09:14:47.988Z,35.46
2018-03-18T09:15:47.967Z,35.46
2018-03-18T09:16:47.965Z,35.46
2018-03-18T09:17:48.113Z,35.6
2018-03-18T09:18:47.967Z,35.55
2018-03-18T09:19:47.965Z,35.58
2018-03-18T09:20:48.032Z,35.63
2018-03-18T09:21:47.968Z,35.66
2018-03-18T09:22:47.961Z,35.7
2018-03-18T09:23:48.004Z,35.76
2018-03-18T09:24:47.968Z,35.79
2018-03-18T09:25:47.978Z,35.76
2018-03-18T09:26:47.993Z,35.67
2018-03-18T09:27:47.966Z,35.4
2018-03-18T09:28:47.968Z,35.57
2018-03-18T09:29:47.974Z,35.73
2018-03-18T09:30:47.965Z,35.41
2018-03-18T09:31:47.965Z,35.39
2018-03-18T09:32:47.968Z,35.43
2018-03-18T09:33:48.138Z,35.4
2018-03-18T09:34:47.964Z,35.37
2018-03-18T09:35:47.987Z,35.75
2018-03-18T09:36:47.959Z,35.49
2018-03-18T09:37:47.958Z,35.61
2018-03-18T09:38:48.014Z,35.64
2018-03-18T09:39:48.009Z,35.61
2018-03-18T09:40:47.952Z,35.61
2018-03-18T09:41:47.970Z,35.62
2018-03-18T09:42:47.958Z,35.32
2018-03-18T09:43:47.994Z,35.57
2018-03-18T09:44:47.821Z,35.65
2018-03-18T09:45:47.974Z,35.68
2018-03-18T09:46:47.957Z,35.62
2018-03-18T09:47:47.971Z,35.83
2018-03-18T09:48:48.050Z,35.75
2018-03-18T09:49:47.966Z,35.71
2018-03-18T09:50:47.986Z,35.77
2018-03-18T09:51:47.975Z,35.33
2018-03-18T09:52:47.956Z,35.54
2018-03-18T09:53:47.988Z,35.5
2018-03-18T09:54:47.958Z,35.42
2018-03-18T09:55:47.986Z,35.39
2018-03-18T09:56:47.978Z,35.52
2018-03-18T09:57:48.002Z,35.69
2018-03-18T09:58:47.962Z,35.55
2018-03-18T09:59:47.994Z,35.72
2018-03-18T10:00:47.992Z,35.74
2018-03-18T10:01:47.958Z,35.83
2018-03-18T10:02:47.994Z,35.7
2018-03-18T10:03:47.953Z,35.42
2018-03-18T10:04:47.959Z,35.43
2018-03-18T10:05:48.098Z,34.92
2018-03-18T10:06:47.948Z,34.93
2018-03-18T10:07:47.975Z,35.32
2018-03-18T10:08:47.966Z,35.42
2018-03-18T10:09:47.981Z,35.4
2018-03-18T10:10:47.976Z,35.25
2018-03-18T10:11:47.996Z,35.27
2018-03-18T10:12:47.952Z,35.3
2018-03-18T10:13:47.948Z,35.31
2018-03-18T10:14:47.959Z,34.82
2018-03-18T10:15:47.954Z,34.77
2018-03-18T10:16:47.987Z,35.18
2018-03-18T10:17:47.989Z,35.11
2018-03-18T10:18:47.944Z,34.55
2018-03-18T10:19:47.966Z,34.97
2018-03-18T10:20:47.990Z,35.06
2018-03-18T10:21:48.089Z,34.95
2018-03-18T10:22:47.948Z,35.03
2018-03-18T10:23:47.961Z,34.9
2018-03-18T10:24:47.967Z,35.07
2018-03-18T10:25:47.944Z,34.93
2018-03-18T10:26:48.030Z,35.08
2018-03-18T10:27:47.949Z,34.39
2018-03-18T10:28:47.999Z,34.45
2018-03-18T10:29:47.969Z,34.48
2018-03-18T10:30:47.940Z,33.73
2018-03-18T10:31:47.971Z,33.79
2018-03-18T10:32:47.976Z,34.16
2018-03-18T10:33:47.971Z,34.05
2018-03-18T10:34:47.946Z,33.59
2018-03-18T10:35:47.976Z,33.99
2018-03-18T10:36:47.973Z,34.03
2018-03-18T10:37:47.959Z,34.32
2018-03-18T10:38:47.957Z,34.65
2018-03-18T10:39:47.944Z,34.55
2018-03-18T10:40:47.958Z,34.74
2018-03-18T10:41:47.993Z,34.92
2018-03-18T10:42:48.107Z,34.95
2018-03-18T10:43:47.942Z,35.03
2018-03-18T10:44:47.956Z,35
2018-03-18T10:45:47.973Z,34.95
2018-03-18T10:46:47.945Z,34.94
2018-03-18T10:47:48.017Z,35.05
2018-03-18T10:48:48.048Z,35.2
2018-03-18T10:49:48.045Z,35.03
2018-03-18T10:50:47.961Z,34.72
2018-03-18T10:51:47.941Z,34.74
2018-03-18T10:52:47.954Z,34.89
2018-03-18T10:53:47.960Z,34.86
2018-03-18T10:54:47.972Z,34.75
2018-03-18T10:55:47.942Z,35.22
2018-03-18T10:56:47.961Z,35.2
2018-03-18T10:57:47.937Z,35.28
2018-03-18T10:58:47.964Z,35.42
2018-03-18T10:59:47.956Z,35.33
2018-03-18T11:00:47.933Z,35.84
2018-03-18T11:01:47.941Z,35.32
2018-03-18T11:02:47.952Z,35.42
2018-03-18T11:03:47.943Z,35.13
2018-03-18T11:04:47.959Z,35.14
2018-03-18T11:05:47.965Z,35.3
2018-03-18T11:06:47.931Z,35.04
2018-03-18T11:07:47.932Z,35.19
2018-03-18T11:08:48.248Z,34.66
2018-03-18T11:09:47.930Z,34.47
2018-03-18T11:10:47.928Z,34.2
2018-03-18T11:11:47.960Z,34.05
2018-03-18T11:12:47.946Z,33.56
2018-03-18T11:13:48.118Z,33.75
2018-03-18T11:14:47.979Z,33.6
2018-03-18T11:15:47.935Z,33.07
2018-03-18T11:16:48.012Z,33.01
2018-03-18T11:17:47.999Z,34.28
2018-03-18T11:18:47.954Z,33.73
2018-03-18T11:19:47.934Z,34.34
2018-03-18T11:20:48.019Z,34.41
2018-03-18T11:21:47.932Z,34.14
2018-03-18T11:22:47.994Z,34.41
2018-03-18T11:23:48.137Z,34.53
2018-03-18T11:24:47.964Z,34.54
2018-03-18T11:25:48.005Z,35.07
2018-03-18T11:28:23.574Z,35.82
2018-03-18T11:29:04.164Z,34.76
2018-03-18T11:30:04.370Z,34.63
2018-03-18T11:31:04.139Z,34.59
2018-03-18T11:32:04.220Z,34.61
2018-03-18T11:33:04.155Z,34.65
2018-03-18T11:34:04.223Z,34.62
2018-03-18T11:35:04.162Z,34.6
2018-03-18T11:36:04.245Z,34.58
2018-03-18T11:37:04.221Z,34.59
2018-03-18T11:38:04.211Z,34.52
2018-03-18T11:39:04.192Z,34.56
2018-03-18T11:40:04.199Z,34.54
2018-03-18T11:41:04.179Z,34.52
2018-03-18T11:42:04.251Z,34.58
2018-03-18T11:43:04.150Z,34.46
2018-03-18T11:43:56.904Z,34.49
2018-03-18T11:44:56.886Z,34.41
2018-03-18T11:45:56.844Z,34.35
2018-03-18T11:46:56.879Z,34.37
2018-03-18T11:53:49.157Z,35.08
2018-03-18T11:54:48.982Z,34.28
2018-03-18T11:55:25.062Z,34.21
2018-03-18T11:56:25.071Z,34.12
2018-03-18T11:57:23.685Z,34.14
2018-03-18T12:01:01.525Z,43.53
2018-03-18T12:02:01.554Z,35.47
2018-03-18T12:03:01.493Z,59.24
2018-03-18T12:04:01.493Z,59.2
2018-03-18T12:05:01.476Z,59.18
2018-03-18T12:06:01.496Z,59.14
2018-03-18T12:07:01.487Z,59.08
2018-03-18T12:08:01.483Z,59.07
2018-03-18T12:09:01.500Z,59.14
2018-03-18T12:10:01.482Z,59.12
2018-03-18T12:11:01.474Z,59.12
2018-03-18T12:12:01.548Z,59.19
2018-03-18T12:13:01.480Z,59.14
2018-03-18T12:14:01.522Z,59.17
2018-03-18T12:15:01.477Z,59.26
2018-03-18T12:16:01.470Z,59.26
2018-03-18T12:17:01.471Z,59.26
2018-03-18T12:18:01.473Z,59.33
2018-03-18T12:19:01.559Z,59.31
2018-03-18T12:20:01.473Z,59.31
2018-03-18T12:21:01.474Z,59.39
2018-03-18T12:22:01.466Z,59.36
2018-03-18T12:23:01.519Z,59.37
2018-03-18T12:24:01.490Z,59.43
2018-03-18T12:25:01.544Z,59.39
2018-03-18T12:26:01.540Z,59.41
2018-03-18T12:27:01.565Z,59.46
2018-03-18T12:28:01.557Z,59.42
2018-03-18T12:29:01.582Z,59.41
2018-03-18T12:30:01.506Z,59.48
2018-03-18T12:31:01.484Z,59.43
2018-03-18T12:32:01.532Z,59.42
2018-03-18T12:33:01.555Z,59.5
2018-03-18T12:34:01.559Z,59.48
2018-03-18T12:35:01.474Z,59.46
2018-03-18T12:36:01.500Z,59.54
2018-03-18T12:37:01.500Z,59.49
2018-03-18T12:38:01.557Z,59.48
2018-03-18T12:39:04.822Z,59.54
2018-03-18T12:40:01.733Z,59.48
2018-03-18T12:41:01.677Z,59.49
2018-03-18T12:42:01.541Z,59.55
2018-03-18T12:43:01.601Z,59.49
2018-03-18T12:44:01.599Z,59.52
2018-03-18T12:45:01.583Z,59.55
2018-03-18T12:46:01.451Z,59.51
2018-03-18T12:47:01.459Z,59.53
2018-03-18T12:48:01.461Z,59.61
2018-03-18T12:49:01.479Z,59.56
2018-03-18T12:50:01.470Z,59.56
2018-03-18T12:51:01.466Z,59.64
2018-03-18T12:52:01.453Z,59.58
2018-03-18T12:53:01.878Z,59.58
2018-03-18T12:54:01.474Z,59.63
2018-03-18T12:55:01.572Z,59.58
2018-03-18T12:56:01.469Z,59.58
2018-03-18T12:57:01.481Z,59.63
2018-03-18T12:58:01.597Z,59.6
2018-03-18T12:59:01.480Z,59.58
2018-03-18T13:00:01.550Z,59.66
2018-03-18T13:01:01.518Z,59.62
2018-03-18T13:02:01.542Z,59.58
2018-03-18T13:03:01.580Z,59.64
2018-03-18T13:04:01.645Z,59.56
2018-03-18T13:05:01.510Z,59.56